Time,TemperatureF,DewpointF,PressureIn,WindDirection,WindDirectionDegrees,WindSpeedMPH,WindSpeedGustMPH,Humidity,HourlyPrecipIn,Conditions,Clouds,dailyrainin,SoftwareType,DateUTC
2013-02-19 00:21:00,36.0,35.0,29.72,North,0,0.0,0.0,96,30.52,,,-99.99,,2013-02-19 08:21:00,
2013-02-19 00:31:00,36.0,35.0,29.72,North,0,0.0,0.0,96,30.52,,,-99.99,,2013-02-19 08:31:00,
2013-02-19 00:42:00,36.0,35.0,29.72,North,0,0.0,0.0,96,30.52,,,-99.99,,2013-02-19 08:42:00,
2013-02-19 00:52:00,36.0,35.0,29.72,North,0,0.0,0.0,96,30.52,,,-99.99,,2013-02-19 08:52:00,
2013-02-19 01:01:00,36.0,35.0,29.72,North,0,0.0,0.0,96,30.52,,,-99.99,,2013-02-19 09:01:00,
2013-02-19 01:11:00,36.0,35.0,29.72,North,0,0.0,0.0,96,30.52,,,-99.99,,2013-02-19 09:11:00,
2013-02-19 01:21:00,36.0,35.0,29.72,North,0,0.0,0.0,96,30.52,,,-99.99,,2013-02-19 09:21:00,
2013-02-19 01:32:00,36.0,35.0,29.70,North,0,0.0,0.0,97,30.52,,,-99.99,,2013-02-19 09:32:00,
2013-02-19 01:42:00,36.0,35.0,29.70,North,0,0.0,0.0,97,30.52,,,-99.99,,2013-02-19 09:42:00,
2013-02-19 01:53:00,36.0,35.0,29.70,North,0,0.0,0.0,97,30.52,,,-99.99,,2013-02-19 09:53:00,
2013-02-19 02:01:00,36.0,35.0,29.70,North,0,0.0,0.0,97,30.52,,,-99.99,,2013-02-19 10:01:00,
2013-02-19 02:11:00,36.0,35.0,29.70,North,0,0.0,0.0,97,30.52,,,-99.99,,2013-02-19 10:11:00,
2013-02-19 03:01:00,36.0,35.0,29.68,North,0,0.0,0.0,96,30.52,,,-99.99,,2013-02-19 11:01:00,
2013-02-19 03:11:00,36.0,35.0,29.68,North,0,0.0,0.0,96,30.52,,,-99.99,,2013-02-19 11:11:00,
2013-02-19 03:21:00,36.0,35.0,29.68,North,0,0.0,0.0,96,30.52,,,-99.99,,2013-02-19 11:21:00,
2013-02-19 03:31:00,36.0,35.0,29.68,North,0,0.0,0.0,96,30.52,,,-99.99,,2013-02-19 11:31:00,
2013-02-19 03:51:00,36.0,35.0,29.67,North,0,0.0,0.0,97,30.52,,,-99.99,,2013-02-19 11:51:00,
2013-02-19 04:21:00,36.0,35.0,29.67,North,0,0.0,0.0,97,30.52,,,-99.99,,2013-02-19 12:21:00,
2013-02-19 04:32:00,36.0,35.0,29.67,North,0,0.0,0.0,97,30.52,,,-99.99,,2013-02-19 12:32:00,
2013-02-19 04:42:00,36.0,35.0,29.67,North,0,0.0,0.0,97,30.52,,,-99.99,,2013-02-19 12:42:00,
2013-02-19 05:02:00,35.0,34.0,29.67,North,0,0.0,0.0,97,30.52,,,-99.99,,2013-02-19 13:02:00,
2013-02-19 05:11:00,35.0,34.0,29.67,North,0,0.0,0.0,97,30.52,,,-99.99,,2013-02-19 13:11:00,
2013-02-19 05:22:00,35.0,34.0,29.67,North,0,0.0,0.0,97,30.52,,,-99.99,,2013-02-19 13:22:00,
2013-02-19 05:31:00,35.0,34.0,29.67,North,0,0.0,0.0,97,30.52,,,-99.99,,2013-02-19 13:31:00,
2013-02-19 05:41:00,35.0,34.0,29.67,North,0,0.0,0.0,97,30.52,,,-99.99,,2013-02-19 13:41:00,
2013-02-19 07:32:00,33.0,32.0,29.70,North,0,0.0,0.0,97,30.52,,,-99.99,,2013-02-19 15:32:00,
2013-02-19 07:42:00,33.0,32.0,29.70,North,0,0.0,0.0,97,30.52,,,-99.99,,2013-02-19 15:42:00,
2013-02-19 07:52:00,33.0,32.0,29.70,North,0,0.0,0.0,97,30.52,,,-99.99,,2013-02-19 15:52:00,
2013-02-19 08:01:00,34.0,33.0,29.72,North,0,0.0,0.0,97,30.52,,,-99.99,,2013-02-19 16:01:00,
2013-02-19 08:11:00,34.0,33.0,29.72,North,0,0.0,0.0,97,30.52,,,-99.99,,2013-02-19 16:11:00,
2013-02-19 08:21:00,34.0,33.0,29.72,North,0,0.0,0.0,97,30.52,,,-99.99,,2013-02-19 16:21:00,
2013-02-19 08:31:00,34.0,33.0,29.72,North,0,0.0,0.0,97,30.52,,,-99.99,,2013-02-19 16:31:00,
2013-02-19 08:41:00,34.0,33.0,29.72,North,0,0.0,0.0,97,30.52,,,-99.99,,2013-02-19 16:41:00,
2013-02-19 08:51:00,36.0,35.0,29.73,North,0,0.0,0.0,97,30.52,,,-99.99,,2013-02-19 16:51:00,
2013-02-19 09:21:00,36.0,35.0,29.73,North,0,0.0,0.0,97,30.52,,,-99.99,,2013-02-19 17:21:00,
2013-02-19 09:32:00,36.0,35.0,29.73,North,0,0.0,0.0,97,30.52,,,-99.99,,2013-02-19 17:32:00,
2013-02-19 09:41:00,36.0,35.0,29.73,North,0,0.0,0.0,97,30.52,,,-99.99,,2013-02-19 17:41:00,
2013-02-19 10:42:00,40.0,36.0,29.74,North,0,0.0,0.0,87,30.52,,,-99.99,,2013-02-19 18:42:00,
2013-02-19 10:52:00,40.0,36.0,29.74,North,0,0.0,0.0,87,30.52,,,-99.99,,2013-02-19 18:52:00,
2013-02-19 11:01:00,40.0,36.0,29.74,North,0,0.0,0.0,87,30.52,,,-99.99,,2013-02-19 19:01:00,
2013-02-19 11:11:00,40.0,36.0,29.74,North,0,0.0,0.0,87,30.52,,,-99.99,,2013-02-19 19:11:00,
2013-02-19 11:21:00,40.0,36.0,29.74,North,0,0.0,0.0,87,30.52,,,-99.99,,2013-02-19 19:21:00,
2013-02-19 11:31:00,41.0,36.0,29.74,SSW,210,0.0,2.0,82,30.52,,,-99.99,,2013-02-19 19:31:00,
2013-02-19 11:42:00,41.0,36.0,29.74,SSW,210,0.0,2.0,82,30.52,,,-99.99,,2013-02-19 19:42:00,
2013-02-19 11:52:00,42.0,36.0,29.74,North,0,0.0,0.0,80,30.52,,,-99.99,,2013-02-19 19:52:00,
2013-02-19 12:01:00,42.0,37.0,29.74,North,0,0.0,0.0,81,30.52,,,-99.99,,2013-02-19 20:01:00,
2013-02-19 12:11:00,42.0,37.0,29.74,North,0,0.0,0.0,81,30.52,,,-99.99,,2013-02-19 20:11:00,
2013-02-19 12:21:00,42.0,37.0,29.74,North,0,0.0,0.0,81,30.52,,,-99.99,,2013-02-19 20:21:00,
2013-02-19 12:31:00,42.0,37.0,29.74,North,0,0.0,0.0,81,30.52,,,-99.99,,2013-02-19 20:31:00,
2013-02-19 13:11:00,49.0,36.0,29.74,SW,222,3.0,9.0,61,30.52,,,-99.99,,2013-02-19 21:11:00,
2013-02-19 13:32:00,49.0,36.0,29.74,SW,222,3.0,9.0,61,30.52,,,-99.99,,2013-02-19 21:32:00,
2013-02-19 13:42:00,49.0,36.0,29.74,SW,222,3.0,9.0,61,30.52,,,-99.99,,2013-02-19 21:42:00,
2013-02-19 13:52:00,49.0,36.0,29.74,SW,222,3.0,9.0,61,30.52,,,-99.99,,2013-02-19 21:52:00,
2013-02-19 14:01:00,49.0,36.0,29.74,SW,222,3.0,9.0,61,30.52,,,-99.99,,2013-02-19 22:01:00,
2013-02-19 14:21:00,49.0,37.0,29.75,South,186,2.0,8.0,63,30.52,,,-99.99,,2013-02-19 22:21:00,
2013-02-19 14:32:00,49.0,37.0,29.75,South,186,2.0,8.0,63,30.52,,,-99.99,,2013-02-19 22:32:00,
2013-02-19 15:52:00,50.0,38.0,29.75,WSW,238,1.0,6.0,63,30.52,,,-99.99,,2013-02-19 23:52:00,
2013-02-19 16:01:00,50.0,38.0,29.75,WSW,238,1.0,6.0,63,30.52,,,-99.99,,2013-02-20 00:01:00,
2013-02-19 16:11:00,50.0,38.0,29.75,WSW,238,1.0,6.0,63,30.52,,,-99.99,,2013-02-20 00:11:00,
2013-02-19 16:21:00,50.0,38.0,29.75,WSW,238,1.0,6.0,63,30.52,,,-99.99,,2013-02-20 00:21:00,
2013-02-19 19:51:00,39.0,36.0,29.86,North,0,0.0,0.0,88,30.52,,,-99.99,,2013-02-20 03:51:00,
2013-02-19 20:21:00,39.0,36.0,29.86,North,0,0.0,0.0,88,30.52,,,-99.99,,2013-02-20 04:21:00,
2013-02-19 20:31:00,39.0,36.0,29.86,North,0,0.0,0.0,88,30.52,,,-99.99,,2013-02-20 04:31:00,
2013-02-19 20:41:00,39.0,36.0,29.86,North,0,0.0,0.0,88,30.52,,,-99.99,,2013-02-20 04:41:00,
2013-02-19 21:02:00,39.0,36.0,29.88,North,0,0.0,0.0,90,30.52,,,-99.99,,2013-02-20 05:02:00,
2013-02-19 21:12:00,39.0,36.0,29.88,North,0,0.0,0.0,90,30.52,,,-99.99,,2013-02-20 05:12:00,
2013-02-19 21:22:00,39.0,36.0,29.88,North,0,0.0,0.0,90,30.52,,,-99.99,,2013-02-20 05:22:00,
2013-02-19 21:32:00,39.0,37.0,29.89,North,0,0.0,0.0,91,30.52,,,-99.99,,2013-02-20 05:32:00,
2013-02-19 21:42:00,39.0,37.0,29.89,North,0,0.0,0.0,91,30.52,,,-99.99,,2013-02-20 05:42:00,
2013-02-19 21:52:00,39.0,37.0,29.90,North,0,0.0,0.0,91,30.52,,,-99.99,,2013-02-20 05:52:00,
2013-02-19 22:01:00,39.0,37.0,29.90,North,0,0.0,0.0,91,30.52,,,-99.99,,2013-02-20 06:01:00,
2013-02-19 22:11:00,39.0,37.0,29.91,North,0,0.0,0.0,92,30.52,,,-99.99,,2013-02-20 06:11:00,
2013-02-19 22:21:00,39.0,37.0,29.91,North,0,0.0,0.0,92,30.52,,,-99.99,,2013-02-20 06:21:00,
2013-02-19 22:31:00,38.0,36.0,29.92,North,0,0.0,0.0,93,30.52,,,-99.99,,2013-02-20 06:31:00,
2013-02-19 22:42:00,38.0,36.0,29.92,North,0,0.0,0.0,93,30.52,,,-99.99,,2013-02-20 06:42:00,
2013-02-19 22:51:00,38.0,36.0,29.92,North,0,0.0,0.0,93,30.52,,,-99.99,,2013-02-20 06:51:00,
2013-02-19 23:01:00,38.0,36.0,29.92,North,0,0.0,0.0,93,30.52,,,-99.99,,2013-02-20 07:01:00,
2013-02-19 23:11:00,38.0,36.0,29.92,North,0,0.0,0.0,93,30.52,,,-99.99,,2013-02-20 07:11:00,
2013-02-19 23:52:00,37.0,36.0,29.94,North,0,0.0,0.0,95,30.52,,,-99.99,,2013-02-20 07:52:00,